Portada
METAR-TAF:

METAR-TAF

Aeroports :

El-Tor, Egipte

latitud: 28-14N, longitud: 032-37E, altitud: 21 m

Observació

L'informe es va fer fa 49 minuts, a les 17:00 UTC
Vent 9 kt del Nord/Nord-Oest
Temperatura 17°C
Humitat 36%
Pressió 1012 hPa
Visibilitat 10 km o més
Escasses núvols a una alçada de 2500 ft
Cel ennuvolat a una alçada de 20000 ft

METAR: HETR 051700Z 33009KT 9999 FEW025 BKN200 17/02 Q1012

Hora: 19:49 (17:49 UTC)

Pronòstic

L'informe es va fer fa 49 minuts, a les 17:00 UTC
Pronòstic vàlid del 05 a les 18 UTC al 06 a les 24 UTC
Vent 15 kt del Oest
Visibilitat 10 km o més
sense núvols per sota de 1500 mi sense presència de cumulonimbus.
Temporalment
l' 06 a les 09 UTC al 06 a les 15 UTC
Vent 18 kt del Nord-Oest amb ràfegues de 30 kt
Visibilitat: 4000 m
sorra

TAF: HETR 051700Z 0518/0624 28015KT CAVOK TEMPO 0609/0615 31018G30KT 4000 SA NSC

Observacions i pronòstics meteorològics de més de 4000 aeroports (METAR i TAF).

Les estacions disponibles són els punts grocs i vermells al mapa.

Posi el ratolí al punt desitjat per veure el nom de l'estació.

Feu clic per veure les observacions i els pronòstics meteorològics.

Per canviar el mapa: feu clic els botons verds amb una creu de color negre per apropar; al botó verd amb un guió per allunyar la imatge; o en les fletxes verdes per a mapes adjacents.


METAR-TAF: